Impacts TAF Board
For situational awareness. Not to be used for flight planning purposes.
IDs:

KDEN - Denver Intl, CO, US

Issued at 0104 UTC 20 Mar 2019
Updated at 0301 UTC 20 Mar 2019
Potential Impact None Slight Moderate High
Time0253Z 20/03Z 20/04Z 20/05Z 20/06Z 20/07Z 20/08Z 20/09Z 20/10Z 20/11Z 20/12Z 20/13Z 20/14Z 20/15Z>>
Type OBS PRVL PRVL PRVL PRVL PRVL PRVL PRVL PRVL PRVL PRVL PRVL PRVL PRVL
VIS 10 >6 >6 >6 >6 >6 >6 >6 >6 >6 >6 >6 >6 >6
CIG -- -- -- -- -- -- -- -- -- -- -- -- -- --
Cover FEW FEW FEW SKC SKC SKC SKC SKC SKC SKC SKC SKC SKC SKC
FltCat VFR VFR VFR VFR VFR VFR VFR VFR VFR VFR VFR VFR VFR VFR
WX -- -- -- -- -- -- -- -- -- -- -- -- -- --
WDir 40 20 20 210 210 210 210 210 210 210 210 210 210 210
WSpd 8 8 8 7 7 7 7 7 7 7 7 7 7 7
WGst -- -- -- -- -- -- -- -- -- -- -- -- -- --
Raw TAF
KDEN 200104Z 2001/2106 02008KT P6SM FEW100
  FM200500 21007KT P6SM SKC
  FM201600 VRB05KT P6SM FEW150
  FM202000 03007KT P6SM FEW150
  FM210300 VRB05KT P6SM SKC


Raw METAR
KDEN 200253Z 04008KT 10SM FEW100 00/M07 A3027 RMK AO2 SLP260 T00001072 53016
KDEN 200153Z 01012KT 10SM FEW110 02/M08 A3025 RMK AO2 SLP251 T00171083
KDEN 200053Z 02009KT 10SM FEW110 04/M09 A3023 RMK AO2 PK WND 36032/2355 SLP238 T00441089
KDEN 192353Z 01018G23KT 10SM SCT060 BKN075 06/M11 A3022 RMK AO2 SLP228 VIRGA N AND SE 60000 T00611106 10078 20050 53004

METAR Board
Radar Display
Forecast Discussion
For situational awareness. Not to be used for flight planning purposes.